Time;durP1;ratioP1;P1;durP2;ratioP2;P2;SDS_P1;SDS_P2;PMS_P1;PMS_P2;Temp;Humidity;BMP_temperature;BMP_pressure;BME280_temperature;BME280_humidity;BME280_pressure;Samples;Min_cycle;Max_cycle;Signal;HPM_P1;HPM_P2
2021/10/28 00:15:55;;;;;;;6.28;2.70;;;;;;;;;;5036549;28;20126;-62
2021/10/28 00:21:23;;;;;;;5.23;1.30;;;;;;;;;;5086693;28;20039;-62
2021/10/28 00:24:03;;;;;;;;;;;;;;;;;;;;;
2021/10/28 00:26:51;;;;;;;4.73;1.63;;;;;;;;;;5074181;28;20046;-60
2021/10/28 00:29:38;;;;;;;3.47;2.23;;;;;;;;;;5093859;28;20047;-61
2021/10/28 00:32:25;;;;;;;;;;;;;;;;;;;;;
2021/10/28 00:35:21;;;;;;;2.97;1.50;;;;;;;;;;5089180;28;20145;-61
2021/10/28 00:38:07;;;;;;;3.30;1.70;;;;;;;;;;5094058;28;20268;-61
2021/10/28 00:40:49;;;;;;;2.87;1.70;;;;;;;;;;5089890;28;20031;-61
2021/10/28 00:43:22;;;;;;;2.80;1.20;;;;;;;;;;5086621;28;20035;-61
2021/10/28 00:46:10;;;;;;;5.77;1.20;;;;;;;;;;5088648;28;20728;-61
2021/10/28 00:49:05;;;;;;;2.63;1.50;;;;;;;;;;5085763;28;20068;-61
2021/10/28 00:51:44;;;;;;;5.05;1.17;;;;;;;;;;5092708;28;20362;-64
2021/10/28 00:54:17;;;;;;;6.63;2.07;;;;;;;;;;5092509;28;20020;-62
2021/10/28 00:56:50;;;;;;;4.23;1.30;;;;;;;;;;5093600;28;20028;-61
2021/10/28 00:59:20;;;;;;;2.27;1.23;;;;;;;;;;5093142;28;20498;-61
2021/10/28 01:02:33;;;;;;;3.17;1.67;;;;;;;;;;5091882;28;20777;-62
2021/10/28 01:04:56;;;;;;;;;;;;;;;;;;5069031;28;20044;-61
2021/10/28 01:07:55;;;;;;;8.40;1.60;;;;;;;;;;5087840;28;19912;-61
2021/10/28 01:10:35;;;;;;;7.87;1.63;;;;;;;;;;5043776;28;20050;-61
2021/10/28 01:13:06;;;;;;;7.97;2.87;;;;;;;;;;5090542;28;20062;-61
2021/10/28 01:15:33;;;;;;;11.37;2.30;;;;;;;;;;5093535;28;20163;-61
2021/10/28 01:18:07;;;;;;;4.63;1.80;;;;;;;;;;5093266;28;20055;-61
2021/10/28 01:20:42;;;;;;;4.15;2.05;;;;;;;;;;5092620;28;20024;-61
2021/10/28 01:23:11;;;;;;;3.80;2.37;;;;;;;;;;5092707;28;21037;-61
2021/10/28 01:25:41;;;;;;;3.53;2.00;;;;;;;;;;5089125;28;20036;-61
2021/10/28 01:28:20;;;;;;;10.70;2.20;;;;;;;;;;5087999;28;20024;-61
2021/10/28 01:30:55;;;;;;;4.50;2.40;;;;;;;;;;5087736;28;20374;-60
2021/10/28 01:33:23;;;;;;;4.87;2.30;;;;;;;;;;5087809;28;20024;-61
2021/10/28 01:35:51;;;;;;;9.17;2.10;;;;;;;;;;5091725;28;20027;-60
2021/10/28 01:38:25;;;;;;;6.83;1.70;;;;;;;;;;5092657;28;20375;-60
2021/10/28 01:41:00;;;;;;;5.10;1.90;;;;;;;;;;5092296;28;20085;-60
2021/10/28 01:43:28;;;;;;;10.50;2.00;;;;;;;;;;5092618;28;20032;-60
2021/10/28 01:46:06;;;;;;;4.87;1.60;;;;;;;;;;5074420;28;20032;-61
2021/10/28 01:48:37;;;;;;;8.00;2.40;;;;;;;;;;5087857;28;20084;-60
2021/10/28 01:51:22;;;;;;;10.53;2.73;;;;;;;;;;5069464;28;20073;-60
2021/10/28 01:53:53;;;;;;;6.78;2.10;;;;;;;;;;5087511;28;20024;-61
2021/10/28 01:56:20;;;;;;;9.53;3.63;;;;;;;;;;5087124;28;20111;-60
2021/10/28 01:58:57;;;;;;;5.13;2.53;;;;;;;;;;5092473;28;20024;-62
2021/10/28 02:01:24;;;;;;;9.20;2.47;;;;;;;;;;5090459;28;20382;-61
2021/10/28 02:03:55;;;;;;;9.33;2.60;;;;;;;;;;5091227;28;20036;-60
2021/10/28 02:06:33;;;;;;;4.13;2.00;;;;;;;;;;5092076;28;20017;-60
2021/10/28 02:09:03;;;;;;;5.73;2.37;;;;;;;;;;5091817;28;20032;-60
2021/10/28 02:11:30;;;;;;;3.90;1.83;;;;;;;;;;5087325;28;20064;-60
2021/10/28 02:14:00;;;;;;;3.90;1.93;;;;;;;;;;5087190;28;20060;-61
2021/10/28 02:16:34;;;;;;;3.37;1.80;;;;;;;;;;5086691;28;20463;-61
2021/10/28 02:19:02;;;;;;;7.97;1.95;;;;;;;;;;5087679;28;20032;-60
2021/10/28 02:21:29;;;;;;;6.33;2.37;;;;;;;;;;5054108;28;20111;-60
2021/10/28 02:24:02;;;;;;;5.57;2.00;;;;;;;;;;5072209;28;20507;-61
2021/10/28 02:26:33;;;;;;;3.77;1.80;;;;;;;;;;5087002;28;20032;-60
2021/10/28 02:29:06;;;;;;;4.87;2.37;;;;;;;;;;5092167;28;20107;-60
2021/10/28 02:31:36;;;;;;;8.20;2.17;;;;;;;;;;5088361;28;20055;-60
2021/10/28 02:34:03;;;;;;;3.30;1.90;;;;;;;;;;5087270;28;20106;-60
2021/10/28 02:36:36;;;;;;;7.50;2.07;;;;;;;;;;5087026;28;20032;-60
2021/10/28 02:39:03;;;;;;;4.23;1.70;;;;;;;;;;5087177;28;20039;-60
2021/10/28 02:41:30;;;;;;;4.97;2.00;;;;;;;;;;5089930;28;20080;-60
2021/10/28 02:43:58;;;;;;;4.50;2.00;;;;;;;;;;5096318;28;20125;-60
2021/10/28 02:46:25;;;;;;;2.90;1.77;;;;;;;;;;5095652;28;20032;-62
2021/10/28 02:48:52;;;;;;;4.40;2.27;;;;;;;;;;5096033;28;20081;-60
2021/10/28 02:51:19;;;;;;;3.40;1.93;;;;;;;;;;5096014;28;20059;-60
2021/10/28 02:53:52;;;;;;;5.17;2.20;;;;;;;;;;5094745;28;20024;-60
2021/10/28 02:56:19;;;;;;;3.50;1.83;;;;;;;;;;5090865;28;20501;-60
2021/10/28 02:58:47;;;;;;;6.03;2.20;;;;;;;;;;5090829;28;20020;-61
2021/10/28 03:01:14;;;;;;;4.37;1.77;;;;;;;;;;5090995;28;20071;-60
2021/10/28 03:03:41;;;;;;;4.57;1.77;;;;;;;;;;5090420;28;20054;-60
2021/10/28 03:06:08;;;;;;;4.43;1.77;;;;;;;;;;5095854;28;20052;-60
2021/10/28 03:08:41;;;;;;;6.53;2.10;;;;;;;;;;5095823;28;20024;-60
2021/10/28 03:11:08;;;;;;;4.37;1.67;;;;;;;;;;5095066;28;20413;-60
2021/10/28 03:13:40;;;;;;;7.43;2.17;;;;;;;;;;5094704;28;20044;-60
2021/10/28 03:16:48;;;;;;;9.30;1.93;;;;;;;;;;5095014;28;20036;-60
2021/10/28 03:27:21;;;;;;;;;;;;;;;;;;5093399;28;20067;-60
2021/10/28 03:29:48;;;;;;;3.80;1.97;;;;;;;;;;5095561;28;19912;-61
2021/10/28 03:32:15;;;;;;;5.27;1.97;;;;;;;;;;5094941;28;20457;-61
2021/10/28 03:34:43;;;;;;;3.77;1.90;;;;;;;;;;5095322;28;20016;-60
2021/10/28 03:37:36;;;;;;;5.33;2.10;;;;;;;;;;5095073;28;20479;-60
2021/10/28 03:59:51;;;;;;;4.67;1.50;;;;;;;;;;5051190;28;20041;-61
2021/10/28 04:08:19;;;;;;;2.87;1.60;;;;;;;;;;5085907;28;19969;-60
2021/10/28 04:30:01;;;;;;;;;;;;;;;;;;5089305;28;20490;-59
2021/10/28 04:32:29;;;;;;;3.60;2.00;;;;;;;;;;5088539;28;19966;-60
2021/10/28 04:34:56;;;;;;;2.80;1.60;;;;;;;;;;5092371;28;20559;-59
2021/10/28 04:37:23;;;;;;;3.30;1.73;;;;;;;;;;5093353;28;20040;-61
2021/10/28 04:39:54;;;;;;;4.40;1.60;;;;;;;;;;5093991;28;20568;-59
2021/10/28 04:42:21;;;;;;;3.10;1.90;;;;;;;;;;5093726;28;20126;-59
2021/10/28 04:44:48;;;;;;;2.90;1.77;;;;;;;;;;5094158;28;20487;-59
2021/10/28 04:47:16;;;;;;;4.13;2.13;;;;;;;;;;5089129;28;20028;-59
2021/10/28 04:49:44;;;;;;;4.47;1.80;;;;;;;;;;5088104;28;20044;-60
2021/10/28 04:52:11;;;;;;;8.50;1.90;;;;;;;;;;5088487;28;20040;-59
2021/10/28 04:54:39;;;;;;;4.10;1.97;;;;;;;;;;5088443;28;20036;-59
2021/10/28 04:57:07;;;;;;;4.07;1.80;;;;;;;;;;5091429;28;20028;-59
2021/10/28 04:59:35;;;;;;;5.77;2.13;;;;;;;;;;5075661;28;20032;-59
2021/10/28 05:02:02;;;;;;;7.27;1.97;;;;;;;;;;5093322;28;20056;-60
2021/10/28 05:04:29;;;;;;;3.40;1.80;;;;;;;;;;5092017;28;20030;-59
2021/10/28 05:06:59;;;;;;;2.53;1.43;;;;;;;;;;5093049;28;20119;-59
2021/10/28 05:09:29;;;;;;;5.20;1.63;;;;;;;;;;5089649;28;20063;-59
2021/10/28 05:11:56;;;;;;;3.50;1.40;;;;;;;;;;5087553;28;20410;-59
2021/10/28 05:14:24;;;;;;;3.00;1.60;;;;;;;;;;5088000;28;20756;-59
2021/10/28 05:16:58;;;;;;;3.73;1.87;;;;;;;;;;5087624;28;20024;-60
2021/10/28 05:19:28;;;;;;;3.13;2.03;;;;;;;;;;5090999;28;20039;-59
2021/10/28 05:21:55;;;;;;;3.93;2.00;;;;;;;;;;5092870;28;20052;-59
2021/10/28 05:24:23;;;;;;;2.43;1.43;;;;;;;;;;5093242;28;20031;-59
2021/10/28 05:26:50;;;;;;;3.47;1.57;;;;;;;;;;5092464;28;20031;-59
2021/10/28 05:29:17;;;;;;;5.80;1.83;;;;;;;;;;5092743;28;20032;-59
2021/10/28 05:31:48;;;;;;;2.80;1.77;;;;;;;;;;5089105;28;20085;-59
2021/10/28 05:34:15;;;;;;;2.50;1.67;;;;;;;;;;5087525;28;20032;-59
2021/10/28 05:36:42;;;;;;;2.30;1.30;;;;;;;;;;5086957;28;20036;-60
2021/10/28 05:39:10;;;;;;;3.17;1.90;;;;;;;;;;5087615;28;20080;-59
2021/10/28 05:41:37;;;;;;;7.53;2.07;;;;;;;;;;5090616;28;20476;-59
2021/10/28 05:44:04;;;;;;;2.83;1.70;;;;;;;;;;5092723;28;20034;-59
2021/10/28 05:46:31;;;;;;;4.30;1.53;;;;;;;;;;5092450;28;20360;-59
2021/10/28 05:48:58;;;;;;;3.77;2.00;;;;;;;;;;5092331;28;20035;-59
2021/10/28 05:51:29;;;;;;;4.77;2.17;;;;;;;;;;5092689;28;20039;-59
2021/10/28 05:53:55;;;;;;;5.83;1.90;;;;;;;;;;5088636;28;20536;-59
2021/10/28 05:56:22;;;;;;;6.20;1.73;;;;;;;;;;5087038;28;20200;-59
2021/10/28 05:58:49;;;;;;;3.07;2.00;;;;;;;;;;5087249;28;20749;-59
2021/10/28 06:01:16;;;;;;;4.37;1.70;;;;;;;;;;5087376;28;20032;-60
2021/10/28 06:03:43;;;;;;;5.40;1.60;;;;;;;;;;5089464;28;20039;-59
2021/10/28 06:06:10;;;;;;;3.30;1.80;;;;;;;;;;5092136;28;20039;-59
2021/10/28 06:08:37;;;;;;;3.80;1.80;;;;;;;;;;5092467;28;20065;-59
2021/10/28 06:11:04;;;;;;;2.93;1.70;;;;;;;;;;5091935;28;20038;-59
2021/10/28 06:13:31;;;;;;;3.87;1.77;;;;;;;;;;5091792;28;20089;-59
2021/10/28 06:15:59;;;;;;;3.73;1.60;;;;;;;;;;5092340;28;20089;-59
2021/10/28 06:20:55;;;;;;;6.37;1.77;;;;;;;;;;5093423;28;20042;-59
2021/10/28 06:23:22;;;;;;;2.97;1.67;;;;;;;;;;5093638;28;20063;-59
2021/10/28 06:25:49;;;;;;;3.03;1.30;;;;;;;;;;5096114;28;20028;-59
2021/10/28 06:28:16;;;;;;;3.43;1.63;;;;;;;;;;5098599;28;20081;-59
2021/10/28 06:30:43;;;;;;;3.43;1.50;;;;;;;;;;5098970;28;20552;-59
2021/10/28 06:33:14;;;;;;;6.93;1.80;;;;;;;;;;5098557;28;20091;-60
2021/10/28 06:35:43;;;;;;;3.57;1.60;;;;;;;;;;5098831;28;20094;-60
2021/10/28 06:38:10;;;;;;;3.93;2.00;;;;;;;;;;5095860;28;20036;-60
2021/10/28 06:40:37;;;;;;;6.63;2.27;;;;;;;;;;5093645;28;20046;-60
2021/10/28 06:43:04;;;;;;;3.00;1.80;;;;;;;;;;5092624;28;20051;-59
2021/10/28 06:45:31;;;;;;;4.27;2.00;;;;;;;;;;5093667;28;20031;-60
2021/10/28 06:47:58;;;;;;;4.73;1.73;;;;;;;;;;5095346;28;20024;-60
2021/10/28 06:50:29;;;;;;;2.50;1.60;;;;;;;;;;5098708;28;20027;-59
2021/10/28 07:02:15;;;;;;;3.13;1.70;;;;;;;;;;5098790;28;20136;-60
2021/10/28 07:03:32;;;;;;;2.63;1.50;;;;;;;;;;5093743;28;20071;-60
2021/10/28 07:06:08;;;;;;;9.73;1.97;;;;;;;;;;5093059;28;20112;-60
2021/10/28 07:08:38;;;;;;;7.03;1.90;;;;;;;;;;5093152;28;20028;-60
2021/10/28 07:11:09;;;;;;;3.20;1.67;;;;;;;;;;5096560;28;20055;-60
2021/10/28 07:13:40;;;;;;;4.03;1.77;;;;;;;;;;5098527;28;20040;-60
2021/10/28 07:21:54;;;;;;;1.97;1.20;;;;;;;;;;5097475;28;20043;-60
2021/10/28 07:24:24;;;;;;;3.07;2.00;;;;;;;;;;5075191;28;20422;-60
2021/10/28 07:27:16;;;;;;;3.47;1.87;;;;;;;;;;5091281;28;20461;-61
2021/10/28 07:33:14;;;;;;;4.97;1.75;;;;;;;;;;5091615;28;20395;-60
2021/10/28 07:35:35;;;;;;;3.60;1.60;;;;;;;;;;5081413;28;20475;-60
2021/10/28 08:06:05;;;;;;;3.57;1.30;;;;;;;;;;4993000;28;20042;-60
2021/10/28 08:17:10;;;;;;;;;;;;;;;;;;5078195;28;20040;-60
2021/10/28 08:19:50;;;;;;;3.70;1.80;;;;;;;;;;5093860;28;20251;-60
2021/10/28 08:30:21;;;;;;;3.47;1.50;;;;;;;;;;5090331;28;20051;-60
2021/10/28 08:32:47;;;;;;;4.43;1.60;;;;;;;;;;5088874;28;20047;-60
2021/10/28 08:35:15;;;;;;;4.00;2.00;;;;;;;;;;5088690;28;20151;-60
2021/10/28 08:37:46;;;;;;;2.33;1.47;;;;;;;;;;5088345;28;20036;-60
2021/10/28 08:40:15;;;;;;;3.77;1.87;;;;;;;;;;5091416;28;20040;-60
2021/10/28 08:42:43;;;;;;;2.83;1.77;;;;;;;;;;5093491;28;20016;-60
2021/10/28 08:45:19;;;;;;;3.93;1.77;;;;;;;;;;5093751;28;20032;-60
2021/10/28 08:47:48;;;;;;;4.90;1.63;;;;;;;;;;5093872;28;20482;-60
2021/10/28 08:50:22;;;;;;;3.93;1.80;;;;;;;;;;5093671;28;20356;-61
2021/10/28 08:53:18;;;;;;;3.33;1.77;;;;;;;;;;5068985;28;20815;-60
2021/10/28 08:55:41;;;;;;;4.57;2.13;;;;;;;;;;5072240;28;20047;-60
2021/10/28 09:25:46;;;;;;;4.95;1.63;;;;;;;;;;5093176;28;20047;-60
2021/10/28 09:28:34;;;;;;;4.20;2.00;;;;;;;;;;5092755;28;20137;-60
2021/10/28 09:31:09;;;;;;;5.27;2.20;;;;;;;;;;5092828;28;20024;-60
2021/10/28 09:33:56;;;;;;;;;;;;;;;;;;5093440;28;20040;-60
2021/10/28 09:44:49;;;;;;;3.10;1.80;;;;;;;;;;5087627;28;20051;-60
2021/10/28 09:47:34;;;;;;;3.80;2.08;;;;;;;;;;5090646;28;20474;-60
2021/10/28 09:50:10;;;;;;;4.70;2.40;;;;;;;;;;5091747;28;20111;-60
2021/10/28 09:52:48;;;;;;;4.93;1.93;;;;;;;;;;5092082;28;20040;-60
2021/10/28 09:58:05;;;;;;;3.92;1.90;;;;;;;;;;5091556;28;20043;-59
2021/10/28 10:00:39;;;;;;;3.17;1.93;;;;;;;;;;5087105;28;20024;-60
2021/10/28 10:03:22;;;;;;;3.90;2.05;;;;;;;;;;5087254;28;20032;-60
2021/10/28 10:05:56;;;;;;;9.20;2.27;;;;;;;;;;5087137;28;20036;-60
2021/10/28 10:08:24;;;;;;;3.00;1.60;;;;;;;;;;5088243;28;20082;-60
2021/10/28 10:10:53;;;;;;;3.03;1.63;;;;;;;;;;5091719;28;20032;-60
2021/10/28 10:13:24;;;;;;;2.70;1.70;;;;;;;;;;5092151;28;20051;-61
2021/10/28 10:15:52;;;;;;;4.03;1.73;;;;;;;;;;5092061;28;20028;-60
2021/10/28 10:18:22;;;;;;;3.17;1.60;;;;;;;;;;5092445;28;20032;-60
2021/10/28 10:20:53;;;;;;;4.43;1.53;;;;;;;;;;5090125;28;20061;-60
2021/10/28 10:23:43;;;;;;;6.47;1.90;;;;;;;;;;5087078;28;20028;-60
2021/10/28 12:43:40;;;;;;;5.13;2.90;;;;;;;;;;5088342;28;20562;-60
2021/10/28 12:46:23;;;;;;;6.50;2.90;;;;;;;;;;5093547;28;20028;-60
2021/10/28 12:51:45;;;;;;;9.10;3.80;;;;;;;;;;5093346;28;20028;-59
2021/10/28 13:37:45;;;;;;;6.07;2.35;;;;;;;;;;5072544;28;20486;-60
2021/10/28 13:50:41;;;;;;;3.90;2.10;;;;;;;;;;5087418;28;20038;-60
2021/10/28 14:23:02;;;;;;;3.57;2.27;;;;;;;;;;5072065;28;20278;-61
2021/10/28 14:34:41;;;;;;;7.10;3.57;;;;;;;;;;5087224;28;20104;-61
2021/10/28 15:01:40;;;;;;;5.03;2.57;;;;;;;;;;5096198;28;19958;-61
2021/10/28 15:31:49;;;;;;;7.27;3.37;;;;;;;;;;5074858;28;20047;-61
2021/10/28 15:39:37;;;;;;;10.30;3.30;;;;;;;;;;5089670;28;20063;-61
2021/10/28 16:22:29;;;;;;;7.13;2.72;;;;;;;;;;5088902;28;20180;-61
2021/10/28 16:24:57;;;;;;;4.20;2.42;;;;;;;;;;5088872;28;20035;-61
2021/10/28 16:27:24;;;;;;;6.15;2.58;;;;;;;;;;5090673;28;20410;-61
2021/10/28 16:29:51;;;;;;;5.68;2.80;;;;;;;;;;5093820;28;20089;-61
2021/10/28 16:32:18;;;;;;;8.80;2.45;;;;;;;;;;5093746;28;20464;-61
2021/10/28 16:34:44;;;;;;;4.97;2.72;;;;;;;;;;5094094;28;20447;-61
2021/10/28 16:37:13;;;;;;;3.28;2.13;;;;;;;;;;5094065;28;20034;-61
2021/10/28 16:39:41;;;;;;;6.15;3.00;;;;;;;;;;5091748;28;20374;-61
2021/10/28 16:42:08;;;;;;;6.43;2.78;;;;;;;;;;5088506;28;20024;-61
2021/10/28 16:44:37;;;;;;;5.05;2.97;;;;;;;;;;5088193;28;20471;-61
2021/10/28 16:47:04;;;;;;;7.55;2.83;;;;;;;;;;5088483;28;20028;-61
2021/10/28 16:49:31;;;;;;;6.85;2.97;;;;;;;;;;5089830;28;20023;-62
2021/10/28 16:51:58;;;;;;;5.15;2.85;;;;;;;;;;5093566;28;20028;-61
2021/10/28 16:54:26;;;;;;;4.45;2.65;;;;;;;;;;5093750;28;20012;-61
2021/10/28 16:56:56;;;;;;;5.00;2.78;;;;;;;;;;5093306;28;20085;-61
2021/10/28 16:59:25;;;;;;;5.20;2.75;;;;;;;;;;5093440;28;20035;-61
2021/10/28 17:01:53;;;;;;;6.30;2.53;;;;;;;;;;5090919;28;20032;-61
2021/10/28 17:04:20;;;;;;;4.30;2.55;;;;;;;;;;5088112;28;20032;-61
2021/10/28 17:06:47;;;;;;;5.28;2.28;;;;;;;;;;5088090;28;20032;-61
2021/10/28 17:09:14;;;;;;;3.50;2.03;;;;;;;;;;5087958;28;20062;-62
2021/10/28 17:11:41;;;;;;;5.43;2.20;;;;;;;;;;5089135;28;20020;-61
2021/10/28 17:14:09;;;;;;;4.45;2.22;;;;;;;;;;5093189;28;20024;-61
2021/10/28 17:16:36;;;;;;;3.28;2.25;;;;;;;;;;5092862;28;20463;-61
2021/10/28 17:19:04;;;;;;;4.85;2.22;;;;;;;;;;5092917;28;20020;-63
2021/10/28 17:21:31;;;;;;;7.10;2.38;;;;;;;;;;5093140;28;20039;-62
2021/10/28 17:24:01;;;;;;;4.35;2.03;;;;;;;;;;5091598;28;20691;-61
2021/10/28 17:26:29;;;;;;;3.10;2.30;;;;;;;;;;5087704;28;20082;-61
2021/10/28 17:28:59;;;;;;;4.85;2.45;;;;;;;;;;5087748;28;20085;-61
2021/10/28 17:31:27;;;;;;;4.72;2.58;;;;;;;;;;5087046;28;20047;-62
2021/10/28 17:33:56;;;;;;;6.40;2.15;;;;;;;;;;5087768;28;20588;-61
2021/10/28 17:36:23;;;;;;;5.70;2.50;;;;;;;;;;5092535;28;20497;-61
2021/10/28 17:38:51;;;;;;;5.22;2.17;;;;;;;;;;5092938;28;20031;-61
2021/10/28 17:41:18;;;;;;;4.60;2.20;;;;;;;;;;5092886;28;20020;-63
2021/10/28 17:43:49;;;;;;;3.90;2.33;;;;;;;;;;5092531;28;20382;-61
2021/10/28 17:46:16;;;;;;;6.53;2.78;;;;;;;;;;5090818;28;20020;-61
2021/10/28 17:48:43;;;;;;;8.35;3.22;;;;;;;;;;5087166;28;20031;-61
2021/10/28 17:51:10;;;;;;;9.93;3.58;;;;;;;;;;5087298;28;20036;-62
2021/10/28 17:53:38;;;;;;;7.38;3.30;;;;;;;;;;5087101;28;20089;-61
2021/10/28 17:56:05;;;;;;;8.38;3.70;;;;;;;;;;5087844;28;20475;-61
2021/10/28 17:58:33;;;;;;;5.97;2.90;;;;;;;;;;5092284;28;20506;-61
2021/10/28 18:01:00;;;;;;;6.22;2.95;;;;;;;;;;5092561;28;20060;-61
2021/10/28 18:03:28;;;;;;;5.97;2.88;;;;;;;;;;5092202;28;20070;-61
2021/10/28 18:05:55;;;;;;;6.47;3.55;;;;;;;;;;5092641;28;20028;-62
2021/10/28 18:08:22;;;;;;;5.60;2.90;;;;;;;;;;5091568;28;20348;-61
2021/10/28 18:10:49;;;;;;;4.55;3.40;;;;;;;;;;5086215;28;20052;-61
2021/10/28 18:13:18;;;;;;;8.10;4.85;;;;;;;;;;5087116;28;20111;-62
2021/10/28 18:15:46;;;;;;;8.27;4.20;;;;;;;;;;5086988;28;20047;-62
2021/10/28 18:18:12;;;;;;;8.82;4.32;;;;;;;;;;5066544;28;20028;-61
2021/10/28 18:20:40;;;;;;;11.27;5.30;;;;;;;;;;5081133;28;20132;-62
2021/10/28 18:23:07;;;;;;;10.07;4.20;;;;;;;;;;5092320;28;20024;-62
2021/10/28 18:25:35;;;;;;;10.63;4.72;;;;;;;;;;5092306;28;20471;-62
2021/10/28 18:28:02;;;;;;;8.00;4.32;;;;;;;;;;5091967;28;20583;-62
2021/10/28 18:30:29;;;;;;;7.45;4.50;;;;;;;;;;5092098;28;20024;-61
2021/10/28 18:32:57;;;;;;;6.60;4.22;;;;;;;;;;5085789;28;20032;-63
2021/10/28 18:35:24;;;;;;;11.90;4.63;;;;;;;;;;5086678;28;20375;-62
2021/10/28 18:37:51;;;;;;;11.27;5.22;;;;;;;;;;5086976;28;20154;-61
2021/10/28 18:40:18;;;;;;;9.10;4.38;;;;;;;;;;5086309;28;20078;-61
2021/10/28 18:42:45;;;;;;;9.98;4.80;;;;;;;;;;5091816;28;20027;-61
2021/10/28 18:45:12;;;;;;;6.47;4.40;;;;;;;;;;5092035;28;20020;-61
2021/10/28 18:47:39;;;;;;;8.32;4.15;;;;;;;;;;5091559;28;20487;-61
2021/10/28 18:50:06;;;;;;;8.40;3.78;;;;;;;;;;5091914;28;20464;-61
2021/10/28 18:52:33;;;;;;;8.52;3.85;;;;;;;;;;5091913;28;20032;-61
2021/10/28 18:55:02;;;;;;;7.95;3.47;;;;;;;;;;5086613;28;20066;-62
2021/10/28 18:57:29;;;;;;;11.15;3.35;;;;;;;;;;5086121;28;20136;-61
2021/10/28 18:59:55;;;;;;;6.15;2.70;;;;;;;;;;5086077;28;20024;-62
2021/10/28 19:02:26;;;;;;;5.07;2.88;;;;;;;;;;5086134;28;20054;-62
2021/10/28 19:04:52;;;;;;;4.97;3.03;;;;;;;;;;5091022;28;20024;-62
2021/10/28 19:07:20;;;;;;;7.65;4.22;;;;;;;;;;5091381;28;20020;-61
2021/10/28 19:09:47;;;;;;;8.18;4.00;;;;;;;;;;5091696;28;20028;-62
2021/10/28 19:12:13;;;;;;;4.18;3.10;;;;;;;;;;5091633;28;20062;-63
2021/10/28 19:14:43;;;;;;;8.00;3.65;;;;;;;;;;5091801;28;20081;-61
2021/10/28 19:17:11;;;;;;;4.93;2.85;;;;;;;;;;5086906;28;20032;-62
2021/10/28 19:19:38;;;;;;;10.35;3.13;;;;;;;;;;5086318;28;20037;-62
2021/10/28 19:22:05;;;;;;;6.43;3.28;;;;;;;;;;5086087;28;20031;-62
2021/10/28 19:24:32;;;;;;;5.47;2.88;;;;;;;;;;5088547;28;20063;-62
2021/10/28 19:26:59;;;;;;;5.72;3.03;;;;;;;;;;5093450;28;20102;-61
2021/10/28 19:29:27;;;;;;;8.05;3.08;;;;;;;;;;5095212;28;20547;-62
2021/10/28 19:31:58;;;;;;;3.92;2.95;;;;;;;;;;5094501;28;20079;-62
2021/10/28 19:34:28;;;;;;;5.03;3.35;;;;;;;;;;5094908;28;20364;-62
2021/10/28 19:37:07;;;;;;;7.10;2.97;;;;;;;;;;5094539;28;20084;-62
2021/10/28 19:40:05;;;;;;;3.30;2.75;;;;;;;;;;5090076;28;20105;-62
2021/10/28 19:45:10;;;;;;;9.05;3.30;;;;;;;;;;5088884;28;20028;-62
2021/10/28 19:47:37;;;;;;;6.32;3.78;;;;;;;;;;5089538;28;20028;-62
2021/10/28 19:50:05;;;;;;;7.13;4.20;;;;;;;;;;5095014;28;20498;-62
2021/10/28 19:52:31;;;;;;;6.85;3.50;;;;;;;;;;5094386;28;20044;-62
2021/10/28 19:55:03;;;;;;;6.22;3.50;;;;;;;;;;5094740;28;20023;-63
2021/10/28 19:57:33;;;;;;;5.53;3.83;;;;;;;;;;5094362;28;20502;-62
2021/10/28 20:00:09;;;;;;;8.25;3.67;;;;;;;;;;5093905;28;20024;-62
2021/10/28 20:07:46;;;;;;;7.32;2.25;;;;;;;;;;5089200;28;20121;-61
2021/10/28 20:20:42;;;;;;;4.82;3.30;;;;;;;;;;5094073;28;20035;-61
2021/10/28 20:23:09;;;;;;;5.07;2.95;;;;;;;;;;5091889;28;20036;-62
2021/10/28 20:25:37;;;;;;;7.75;2.85;;;;;;;;;;5088933;28;20021;-62
2021/10/28 20:28:06;;;;;;;6.40;3.00;;;;;;;;;;5088860;28;20035;-62
2021/10/28 20:30:40;;;;;;;4.15;2.90;;;;;;;;;;5088579;28;20028;-62
2021/10/28 20:33:07;;;;;;;4.97;3.05;;;;;;;;;;5089864;28;20036;-62
2021/10/28 20:38:19;;;;;;;4.80;2.40;;;;;;;;;;5094044;28;20391;-61
2021/10/28 20:40:47;;;;;;;3.78;2.38;;;;;;;;;;5094069;28;20103;-61
2021/10/28 20:43:15;;;;;;;3.40;2.35;;;;;;;;;;5093758;28;20053;-61
2021/10/28 20:45:42;;;;;;;4.18;2.08;;;;;;;;;;5090820;28;20031;-61
2021/10/28 20:48:09;;;;;;;14.68;3.47;;;;;;;;;;5088376;28;20149;-61
2021/10/28 20:50:36;;;;;;;18.20;3.60;;;;;;;;;;5088384;28;20039;-62
2021/10/28 20:53:03;;;;;;;16.17;4.38;;;;;;;;;;5088416;28;20058;-62
2021/10/28 20:55:30;;;;;;;8.70;3.53;;;;;;;;;;5089675;28;20036;-62
2021/10/28 20:57:57;;;;;;;10.00;3.40;;;;;;;;;;5093767;28;20483;-62
2021/10/28 21:00:25;;;;;;;6.25;2.70;;;;;;;;;;5093654;28;20043;-63
2021/10/28 21:02:54;;;;;;;8.85;2.78;;;;;;;;;;5092920;28;20074;-62
2021/10/28 21:05:22;;;;;;;4.87;3.23;;;;;;;;;;5093210;28;20039;-64
2021/10/28 21:07:50;;;;;;;4.40;3.00;;;;;;;;;;5091612;28;20448;-63
2021/10/28 21:10:18;;;;;;;10.07;3.30;;;;;;;;;;5088072;28;20028;-63
2021/10/28 21:12:45;;;;;;;16.23;6.70;;;;;;;;;;5088007;28;20085;-63
2021/10/28 21:15:12;;;;;;;10.13;5.57;;;;;;;;;;5088178;28;20028;-62
2021/10/28 21:17:39;;;;;;;7.63;4.00;;;;;;;;;;5088616;28;20099;-62
2021/10/28 21:20:07;;;;;;;7.17;3.00;;;;;;;;;;5092600;28;20028;-62
2021/10/28 21:22:35;;;;;;;3.70;2.47;;;;;;;;;;5093320;28;20032;-62
2021/10/28 21:25:02;;;;;;;3.63;2.40;;;;;;;;;;5093173;28;20036;-63
2021/10/28 21:27:29;;;;;;;2.87;2.03;;;;;;;;;;5093244;28;20058;-62
2021/10/28 21:29:55;;;;;;;2.90;2.20;;;;;;;;;;5091424;28;20124;-62
2021/10/28 21:32:22;;;;;;;3.40;1.80;;;;;;;;;;5087703;28;20032;-62
2021/10/28 21:34:49;;;;;;;2.87;2.07;;;;;;;;;;5087328;28;20054;-63
2021/10/28 21:37:17;;;;;;;3.60;1.97;;;;;;;;;;5087674;28;20111;-62
2021/10/28 21:39:44;;;;;;;3.77;2.00;;;;;;;;;;5087947;28;20032;-62
2021/10/28 21:42:11;;;;;;;6.00;2.87;;;;;;;;;;5092660;28;20028;-63
2021/10/28 21:44:39;;;;;;;7.77;4.00;;;;;;;;;;5092935;28;20353;-62
2021/10/28 21:47:06;;;;;;;10.67;4.47;;;;;;;;;;5092193;28;20031;-62
2021/10/28 21:49:35;;;;;;;9.37;4.50;;;;;;;;;;5092834;28;20459;-62
2021/10/28 21:52:12;;;;;;;8.40;4.23;;;;;;;;;;5091112;28;20031;-62
2021/10/28 22:00:04;;;;;;;6.80;3.87;;;;;;;;;;5087252;28;20043;-62
2021/10/28 22:05:38;;;;;;;6.60;3.60;;;;;;;;;;5092332;28;20074;-62
2021/10/28 22:24:43;;;;;;;26.47;8.83;;;;;;;;;;5087428;28;20556;-61
2021/10/28 22:27:10;;;;;;;13.93;6.07;;;;;;;;;;5092126;28;20024;-62
2021/10/28 22:29:37;;;;;;;13.33;5.40;;;;;;;;;;5092012;28;20059;-61
2021/10/28 22:32:06;;;;;;;10.17;4.40;;;;;;;;;;5091783;28;20040;-61
2021/10/28 22:34:36;;;;;;;11.50;4.87;;;;;;;;;;5092135;28;20063;-61
2021/10/28 22:37:20;;;;;;;8.27;3.83;;;;;;;;;;5090908;28;20371;-61
2021/10/28 22:42:29;;;;;;;10.63;4.93;;;;;;;;;;5086876;28;20036;-61
2021/10/28 22:44:57;;;;;;;10.30;4.83;;;;;;;;;;5086594;28;20030;-61
2021/10/28 22:47:24;;;;;;;11.10;5.00;;;;;;;;;;5088628;28;20125;-60
2021/10/28 22:49:55;;;;;;;9.80;4.40;;;;;;;;;;5091817;28;20111;-61
2021/10/28 22:52:29;;;;;;;8.23;4.70;;;;;;;;;;5091850;28;20038;-61
2021/10/28 22:55:06;;;;;;;8.23;4.30;;;;;;;;;;5091882;28;20069;-60
2021/10/28 22:57:55;;;;;;;12.23;4.53;;;;;;;;;;5093228;28;20017;-61
2021/10/28 23:00:32;;;;;;;7.33;4.00;;;;;;;;;;5092443;28;20048;-62
2021/10/28 23:03:17;;;;;;;7.73;3.80;;;;;;;;;;5090620;28;20028;-61
2021/10/28 23:22:24;;;;;;;7.95;3.70;;;;;;;;;;5092794;28;20043;-62
2021/10/28 23:24:51;;;;;;;7.90;5.00;;;;;;;;;;5090059;28;20038;-60
2021/10/28 23:27:18;;;;;;;9.40;5.20;;;;;;;;;;5090020;28;20360;-60
2021/10/28 23:29:44;;;;;;;7.73;3.33;;;;;;;;;;5089946;28;20046;-60
2021/10/28 23:32:11;;;;;;;5.40;3.47;;;;;;;;;;5091805;28;20099;-60
2021/10/28 23:34:38;;;;;;;8.73;4.90;;;;;;;;;;5095173;28;20364;-61
2021/10/28 23:37:05;;;;;;;5.67;3.30;;;;;;;;;;5095114;28;20024;-60
2021/10/28 23:39:34;;;;;;;7.77;4.63;;;;;;;;;;5095003;28;20421;-61
2021/10/28 23:42:00;;;;;;;6.37;4.37;;;;;;;;;;5094890;28;20028;-60
2021/10/28 23:44:27;;;;;;;8.97;3.87;;;;;;;;;;5092751;28;20074;-61
2021/10/28 23:46:54;;;;;;;7.40;4.10;;;;;;;;;;5089728;28;20061;-60
2021/10/28 23:49:21;;;;;;;7.23;4.30;;;;;;;;;;5089696;28;20424;-61
2021/10/28 23:51:48;;;;;;;11.13;4.47;;;;;;;;;;5089377;28;20020;-61
2021/10/28 23:54:14;;;;;;;9.73;4.13;;;;;;;;;;5090460;28;20062;-60
2021/10/28 23:56:41;;;;;;;7.00;4.07;;;;;;;;;;5094824;28;20028;-61
2021/10/28 23:59:08;;;;;;;7.27;4.23;;;;;;;;;;5094961;28;20084;-60
